createdAt,value
2018-03-29T00:00:22.038Z,67.47
2018-03-29T00:02:50.439Z,70.80
2018-03-29T00:05:20.517Z,64.85
2018-03-29T00:07:48.973Z,72.15
2018-03-29T00:10:17.410Z,53.53
2018-03-29T00:12:46.047Z,66.12
2018-03-29T00:15:14.445Z,71.97
2018-03-29T00:17:42.909Z,77.78
2018-03-29T00:20:11.346Z,69.90
2018-03-29T00:22:39.735Z,63.87
2018-03-29T00:25:08.104Z,50.60
2018-03-29T00:27:36.544Z,66.65
2018-03-29T00:30:04.888Z,52.20
2018-03-29T00:32:33.273Z,54.35
2018-03-29T00:35:01.865Z,60.67
2018-03-29T00:37:30.211Z,63.05
2018-03-29T00:39:58.620Z,73.28
2018-03-29T00:42:27.611Z,68.90
2018-03-29T00:44:56.726Z,67.10
2018-03-29T00:47:25.151Z,68.07
2018-03-29T00:49:53.749Z,62.55
2018-03-29T00:52:22.221Z,58.78
2018-03-29T00:54:50.751Z,62.50
2018-03-29T00:57:19.462Z,65.62
2018-03-29T00:59:47.955Z,64.87
2018-03-29T01:02:16.425Z,56.58
2018-03-29T01:04:44.942Z,64.60
2018-03-29T01:07:13.559Z,60.20
2018-03-29T01:09:42.059Z,57.55
2018-03-29T01:12:12.024Z,59.70
2018-03-29T01:14:40.398Z,50.33
2018-03-29T01:17:08.766Z,53.08
2018-03-29T01:19:37.370Z,56.15
2018-03-29T01:22:05.687Z,55.08
2018-03-29T01:24:34.221Z,49.70
2018-03-29T01:27:02.613Z,44.10
2018-03-29T01:29:30.971Z,56.45
2018-03-29T01:31:59.366Z,76.28
2018-03-29T01:34:29.417Z,60.30
2018-03-29T01:36:57.950Z,60.08
2018-03-29T01:39:26.337Z,56.90
2018-03-29T01:41:55.619Z,60.33
2018-03-29T01:44:24.142Z,56.37
2018-03-29T01:46:52.638Z,57.22
2018-03-29T01:49:21.388Z,57.05
2018-03-29T01:51:49.773Z,47.47
2018-03-29T01:54:18.172Z,61.78
2018-03-29T01:56:47.165Z,50.60
2018-03-29T01:59:15.566Z,49.00
2018-03-29T02:01:44.025Z,54.40
2018-03-29T02:04:14.086Z,54.25
2018-03-29T02:06:42.433Z,48.08
2018-03-29T02:09:10.793Z,45.78
2018-03-29T02:11:39.169Z,47.03
2018-03-29T02:14:07.554Z,47.38
2018-03-29T02:16:35.976Z,48.10
2018-03-29T02:19:04.721Z,49.15
2018-03-29T02:21:33.085Z,57.80
2018-03-29T02:24:01.413Z,49.95
2018-03-29T02:26:31.378Z,54.53
2018-03-29T02:28:59.768Z,51.63
2018-03-29T02:31:28.135Z,58.55
2018-03-29T02:33:56.592Z,51.60
2018-03-29T02:36:24.977Z,50.35
2018-03-29T02:38:53.350Z,51.53
2018-03-29T02:41:22.105Z,54.03
2018-03-29T02:43:50.482Z,54.28
2018-03-29T02:46:18.826Z,53.95
2018-03-29T02:48:48.067Z,54.15
2018-03-29T02:51:16.433Z,48.33
2018-03-29T02:53:44.889Z,50.17
2018-03-29T02:56:13.287Z,49.20
2018-03-29T02:58:41.677Z,47.42
2018-03-29T03:01:10.038Z,49.97
2018-03-29T03:03:38.426Z,49.97
2018-03-29T03:06:06.785Z,50.28
2018-03-29T03:08:35.218Z,47.47
2018-03-29T03:11:03.815Z,52.20
2018-03-29T03:13:32.350Z,52.35
2018-03-29T03:16:00.711Z,46.78
2018-03-29T03:18:29.090Z,53.38
2018-03-29T03:20:58.003Z,41.72
2018-03-29T03:23:26.398Z,49.65
2018-03-29T03:25:54.787Z,43.92
2018-03-29T03:28:23.135Z,42.20
2018-03-29T03:30:51.475Z,46.08
2018-03-29T03:33:19.868Z,44.95
2018-03-29T03:35:48.494Z,44.38
2018-03-29T03:38:16.893Z,49.70
2018-03-29T03:40:45.824Z,41.83
2018-03-29T03:43:14.233Z,36.75
2018-03-29T03:45:43.929Z,45.95
2018-03-29T03:48:12.598Z,40.03
2018-03-29T03:50:41.304Z,44.85
2018-03-29T03:53:09.755Z,43.08
2018-03-29T03:55:39.014Z,39.00
2018-03-29T05:20:06.028Z,33.72
2018-03-29T05:22:34.387Z,37.17
2018-03-29T05:25:02.735Z,36.65
2018-03-29T05:27:32.650Z,40.88
2018-03-29T05:30:01.026Z,33.25
2018-03-29T05:32:29.466Z,28.75
2018-03-29T05:34:59.210Z,32.63
2018-03-29T05:37:27.805Z,35.03
2018-03-29T05:39:56.280Z,32.20
2018-03-29T05:42:26.576Z,34.63
2018-03-29T05:44:54.922Z,27.52
2018-03-29T05:47:23.368Z,36.53
2018-03-29T05:49:51.851Z,26.87
2018-03-29T05:52:20.303Z,25.48
2018-03-29T05:54:48.697Z,24.40
2018-03-29T05:57:17.690Z,30.25
2018-03-29T05:59:46.072Z,33.92
2018-03-29T06:02:14.447Z,23.45
2018-03-29T06:04:42.867Z,23.05
2018-03-29T06:07:11.517Z,24.50
2018-03-29T06:09:39.898Z,28.45
2018-03-29T06:12:08.472Z,24.35
2018-03-29T06:14:42.395Z,24.90
2018-03-29T06:20:18.182Z,23.45
2018-03-29T06:22:46.768Z,22.10
2018-03-29T06:25:15.219Z,21.87
2018-03-29T06:27:43.940Z,27.83
2018-03-29T06:30:12.484Z,23.75
2018-03-29T06:32:41.040Z,25.17
2018-03-29T06:35:09.400Z,30.90
2018-03-29T06:37:38.865Z,23.25
2018-03-29T06:40:08.037Z,22.42
2018-03-29T06:42:36.374Z,25.88
2018-03-29T06:45:04.951Z,26.85
2018-03-29T06:47:33.325Z,19.83
2018-03-29T06:50:01.710Z,19.87
2018-03-29T06:52:30.894Z,20.20
2018-03-29T06:54:59.657Z,19.15
2018-03-29T06:57:28.042Z,17.98
2018-03-29T06:59:57.985Z,22.00
2018-03-29T07:02:26.370Z,17.95
2018-03-29T07:04:54.745Z,26.77
2018-03-29T07:07:23.859Z,22.58
2018-03-29T07:09:52.293Z,22.65
2018-03-29T07:12:20.905Z,28.85
2018-03-29T07:14:49.351Z,21.23
2018-03-29T07:17:17.786Z,24.52
2018-03-29T07:19:46.228Z,26.83
2018-03-29T07:22:14.623Z,25.55
2018-03-29T07:24:43.398Z,25.75
2018-03-29T07:27:12.827Z,22.48
2018-03-29T07:29:41.499Z,19.73
2018-03-29T07:32:10.600Z,22.90
2018-03-29T07:34:38.950Z,25.33
2018-03-29T07:37:07.908Z,23.17
2018-03-29T07:39:36.258Z,20.92
2018-03-29T07:42:04.610Z,26.95
2018-03-29T07:44:33.005Z,19.20
2018-03-29T07:47:02.344Z,29.90
2018-03-29T07:49:30.795Z,23.70
2018-03-29T07:52:00.361Z,21.42
2018-03-29T07:54:28.732Z,17.77
2018-03-29T07:56:57.164Z,20.92
2018-03-29T07:59:26.418Z,16.12
2018-03-29T08:01:54.800Z,19.20
2018-03-29T08:04:23.377Z,24.37
2018-03-29T08:06:52.533Z,18.98
2018-03-29T08:09:21.047Z,17.67
2018-03-29T08:11:49.436Z,21.73
2018-03-29T08:14:17.840Z,20.95
2018-03-29T08:16:47.633Z,23.35
2018-03-29T08:19:16.005Z,19.30
2018-03-29T08:21:44.579Z,21.20
2018-03-29T08:24:13.140Z,24.50
2018-03-29T08:26:41.930Z,21.00
2018-03-29T08:29:10.876Z,17.58
2018-03-29T08:31:39.241Z,17.55
2018-03-29T08:34:07.827Z,17.20
2018-03-29T08:36:36.371Z,20.98
2018-03-29T08:39:04.763Z,16.83
2018-03-29T08:41:33.251Z,17.50
2018-03-29T08:44:02.568Z,24.48
2018-03-29T08:46:30.916Z,25.45
2018-03-29T08:48:59.271Z,20.25
2018-03-29T08:51:28.055Z,16.55
2018-03-29T08:53:56.438Z,17.50
2018-03-29T08:56:24.818Z,19.65
2018-03-29T08:58:53.193Z,17.05
2018-03-29T09:01:21.569Z,20.90
2018-03-29T09:03:49.971Z,17.12
2018-03-29T09:06:19.140Z,13.68
2018-03-29T09:08:48.609Z,18.37
2018-03-29T09:11:16.985Z,13.52
2018-03-29T09:13:46.784Z,26.77
2018-03-29T09:16:15.364Z,15.13
2018-03-29T09:18:43.805Z,13.18
2018-03-29T09:21:12.695Z,13.48
2018-03-29T09:23:41.049Z,19.62
2018-03-29T09:26:09.452Z,20.88
2018-03-29T09:28:38.213Z,16.92
2018-03-29T09:31:06.555Z,16.70
2018-03-29T09:33:34.989Z,21.67
2018-03-29T09:36:04.171Z,17.37
2018-03-29T09:38:33.605Z,18.87
2018-03-29T09:41:01.975Z,16.85
2018-03-29T09:43:30.411Z,12.95
2018-03-29T09:45:59.694Z,16.70
2018-03-29T09:48:28.199Z,13.70
2018-03-29T09:50:56.598Z,19.52
2018-03-29T09:53:24.986Z,20.00
2018-03-29T09:55:53.336Z,19.35
2018-03-29T09:58:22.867Z,15.10
2018-03-29T10:00:52.264Z,16.45
2018-03-29T10:03:22.914Z,26.23
2018-03-29T10:05:51.675Z,21.45
2018-03-29T10:08:20.202Z,15.95
2018-03-29T10:10:48.992Z,14.82
2018-03-29T10:13:17.512Z,17.23
2018-03-29T10:15:46.086Z,26.75
2018-03-29T10:18:15.202Z,21.23
2018-03-29T10:20:43.901Z,13.80
2018-03-29T10:23:12.659Z,15.85
2018-03-29T10:25:41.291Z,13.82
2018-03-29T10:28:13.877Z,16.02
2018-03-29T10:30:42.458Z,21.27
2018-03-29T10:33:10.913Z,14.20
2018-03-29T10:35:40.757Z,16.77
2018-03-29T10:38:09.104Z,9.45
2018-03-29T10:40:37.457Z,12.30
2018-03-29T10:43:05.853Z,14.43
2018-03-29T10:45:34.235Z,15.35
2018-03-29T10:48:02.597Z,16.65
2018-03-29T10:50:31.745Z,18.40
2018-03-29T10:53:00.130Z,12.23
2018-03-29T10:55:28.465Z,13.90
2018-03-29T10:57:57.437Z,20.23
2018-03-29T11:00:25.813Z,21.98
2018-03-29T11:02:54.258Z,12.05
2018-03-29T11:05:23.150Z,13.43
2018-03-29T11:07:52.522Z,21.10
2018-03-29T11:10:20.968Z,15.75
2018-03-29T11:12:49.858Z,15.85
2018-03-29T11:15:18.470Z,15.48
2018-03-29T11:17:46.988Z,17.65
2018-03-29T11:20:15.690Z,17.20
2018-03-29T11:22:44.086Z,18.33
2018-03-29T11:25:12.569Z,13.70
2018-03-29T11:27:41.241Z,13.32
2018-03-29T11:30:09.596Z,15.75
2018-03-29T11:32:38.900Z,18.00
2018-03-29T11:35:07.326Z,14.93
2018-03-29T11:37:35.696Z,15.63
2018-03-29T11:40:04.059Z,14.65
2018-03-29T11:42:32.580Z,17.27
2018-03-29T11:45:01.145Z,13.95
2018-03-29T11:47:29.475Z,14.10
2018-03-29T11:49:57.994Z,12.07
2018-03-29T11:52:26.355Z,13.25
2018-03-29T11:54:54.749Z,18.12
2018-03-29T11:57:24.714Z,17.02
2018-03-29T11:59:53.292Z,16.55
2018-03-29T12:02:21.847Z,21.45
2018-03-29T12:04:50.247Z,20.42
2018-03-29T12:07:18.685Z,16.77
2018-03-29T12:09:47.438Z,14.48
2018-03-29T12:12:16.017Z,13.62
2018-03-29T12:14:44.409Z,16.98
2018-03-29T12:17:12.939Z,14.55
2018-03-29T12:19:41.634Z,12.52
2018-03-29T12:22:10.156Z,19.98
2018-03-29T12:24:39.912Z,14.38
2018-03-29T12:27:08.702Z,15.40
2018-03-29T12:29:38.180Z,13.15
2018-03-29T12:32:06.833Z,14.02
2018-03-29T12:34:36.535Z,14.20
2018-03-29T12:37:04.974Z,18.52
2018-03-29T12:39:33.929Z,15.75
2018-03-29T12:42:04.178Z,21.02
2018-03-29T12:44:32.897Z,22.23
2018-03-29T12:47:01.504Z,21.08
2018-03-29T12:49:30.273Z,15.48
2018-03-29T12:51:58.742Z,9.10
2018-03-29T12:54:39.050Z,14.40
2018-03-29T12:57:19.698Z,16.48
2018-03-29T12:59:48.314Z,9.90
2018-03-29T13:02:18.136Z,9.05
2018-03-29T13:04:46.834Z,13.02
2018-03-29T13:07:16.497Z,9.13
2018-03-29T13:09:45.572Z,13.65
2018-03-29T13:12:14.309Z,10.70
2018-03-29T13:14:43.958Z,12.52
2018-03-29T13:17:12.699Z,13.85
2018-03-29T13:19:42.276Z,9.40
2018-03-29T13:22:10.885Z,10.55
2018-03-29T13:24:39.440Z,9.00
2018-03-29T13:27:07.818Z,23.05
2018-03-29T13:29:37.058Z,14.27
2018-03-29T13:32:05.634Z,40.35
2018-03-29T13:34:34.052Z,16.73
2018-03-29T13:37:02.504Z,8.10
2018-03-29T13:39:30.854Z,10.55
2018-03-29T13:41:59.250Z,16.75
2018-03-29T13:44:27.647Z,10.70
2018-03-29T13:46:56.036Z,6.50
2018-03-29T13:49:24.406Z,6.15
2018-03-29T13:51:54.559Z,5.03
2018-03-29T13:54:23.039Z,6.97
2018-03-29T13:56:51.516Z,11.30
2018-03-29T13:59:20.921Z,11.15
2018-03-29T14:01:50.144Z,10.10
2018-03-29T14:04:18.559Z,8.80
2018-03-29T14:06:47.255Z,8.68
2018-03-29T14:09:15.903Z,13.70
2018-03-29T14:11:44.345Z,11.27
2018-03-29T14:14:12.999Z,11.00
2018-03-29T14:16:41.813Z,13.07
2018-03-29T14:19:12.724Z,12.30
2018-03-29T14:21:41.156Z,10.55
2018-03-29T14:24:09.642Z,8.88
2018-03-29T14:26:38.081Z,10.82
2018-03-29T14:29:08.148Z,8.18
2018-03-29T14:31:37.719Z,23.08
2018-03-29T14:34:06.303Z,10.35
2018-03-29T14:36:34.906Z,11.63
2018-03-29T14:39:05.691Z,11.63
2018-03-29T14:41:35.300Z,9.27
2018-03-29T14:44:04.351Z,12.30
2018-03-29T14:46:33.771Z,11.43
2018-03-29T14:49:02.557Z,10.32
2018-03-29T14:51:31.761Z,12.93
2018-03-29T14:54:00.537Z,15.35
2018-03-29T14:56:29.147Z,14.85
2018-03-29T14:58:57.882Z,14.18
2018-03-29T15:01:26.773Z,17.02
2018-03-29T15:03:55.592Z,7.87
2018-03-29T15:06:25.066Z,11.63
2018-03-29T15:08:53.971Z,11.00
2018-03-29T15:11:22.830Z,9.18
2018-03-29T15:13:52.595Z,10.32
2018-03-29T15:16:21.976Z,13.23
2018-03-29T15:18:51.125Z,10.93
2018-03-29T15:21:21.798Z,15.13
2018-03-29T15:23:51.573Z,10.05
2018-03-29T15:26:20.041Z,13.23
2018-03-29T15:28:49.808Z,9.23
2018-03-29T15:31:18.786Z,18.60
2018-03-29T15:33:47.912Z,12.02
2018-03-29T15:36:16.813Z,9.38
2018-03-29T15:38:45.638Z,7.72
2018-03-29T15:41:14.192Z,9.95
2018-03-29T15:43:45.018Z,11.50
2018-03-29T15:46:15.793Z,8.10
2018-03-29T15:48:44.354Z,11.98
2018-03-29T15:51:12.698Z,10.80
2018-03-29T15:53:41.423Z,11.65
2018-03-29T15:56:09.925Z,8.45
2018-03-29T15:58:38.364Z,21.87
2018-03-29T16:01:06.764Z,10.25
2018-03-29T16:03:36.086Z,19.73
2018-03-29T16:06:05.327Z,15.05
2018-03-29T16:08:33.935Z,10.57
2018-03-29T16:11:03.690Z,8.73
2018-03-29T16:13:32.251Z,15.35
2018-03-29T16:16:01.006Z,7.60
2018-03-29T16:18:30.874Z,13.52
2018-03-29T16:20:59.425Z,10.85
2018-03-29T16:23:28.180Z,13.50
2018-03-29T16:25:56.794Z,9.20
2018-03-29T16:28:25.919Z,13.10
2018-03-29T16:30:54.634Z,9.70
2018-03-29T16:33:23.790Z,12.10
2018-03-29T16:35:52.529Z,13.07
2018-03-29T16:38:21.291Z,8.85
2018-03-29T16:40:49.705Z,13.20
2018-03-29T16:43:18.936Z,15.80
2018-03-29T16:45:47.308Z,12.65
2018-03-29T16:48:16.355Z,9.07
2018-03-29T16:50:44.699Z,15.63
2018-03-29T16:53:13.823Z,10.05
2018-03-29T16:55:42.455Z,8.95
2018-03-29T16:58:10.989Z,11.18
2018-03-29T17:00:39.363Z,11.52
2018-03-29T17:03:07.828Z,13.68
2018-03-29T17:05:36.547Z,10.85
2018-03-29T17:08:05.000Z,8.35
2018-03-29T17:10:33.947Z,11.43
2018-03-29T17:13:02.784Z,9.40
2018-03-29T17:15:31.283Z,12.25
2018-03-29T17:18:00.087Z,12.88
2018-03-29T17:20:28.520Z,12.93
2018-03-29T17:22:57.256Z,17.12
2018-03-29T17:25:26.040Z,15.77
2018-03-29T17:27:56.159Z,16.45
2018-03-29T17:30:24.933Z,16.55
2018-03-29T17:32:54.129Z,9.65
2018-03-29T17:35:22.732Z,12.60
2018-03-29T17:37:51.310Z,13.00
2018-03-29T17:40:20.002Z,20.23
2018-03-29T17:42:48.394Z,10.88
2018-03-29T17:45:16.880Z,11.93
2018-03-29T17:47:45.523Z,13.52
2018-03-29T17:50:13.982Z,19.48
2018-03-29T17:52:42.407Z,17.42
2018-03-29T17:55:10.923Z,12.55
2018-03-29T17:57:39.344Z,20.62
2018-03-29T18:00:07.999Z,9.27
2018-03-29T18:02:37.257Z,11.93
2018-03-29T18:05:05.872Z,13.88
2018-03-29T18:07:34.305Z,10.20
2018-03-29T18:10:02.969Z,9.38
2018-03-29T18:12:31.679Z,19.37
2018-03-29T18:15:00.481Z,14.70
2018-03-29T18:17:29.097Z,13.70
2018-03-29T18:19:57.854Z,13.80
2018-03-29T18:22:26.522Z,16.85
2018-03-29T18:24:55.449Z,10.38
2018-03-29T18:27:24.296Z,16.08
2018-03-29T18:29:52.995Z,8.40
2018-03-29T18:32:22.380Z,11.23
2018-03-29T18:34:51.172Z,11.10
2018-03-29T18:37:19.600Z,9.85
2018-03-29T18:39:48.211Z,8.80
2018-03-29T18:42:16.613Z,14.57
2018-03-29T18:44:44.990Z,16.40
2018-03-29T18:47:13.508Z,11.70
2018-03-29T18:49:42.009Z,16.10
2018-03-29T18:52:10.408Z,12.98
2018-03-29T18:54:39.555Z,16.55
2018-03-29T18:57:08.004Z,13.55
2018-03-29T18:59:36.515Z,14.23
2018-03-29T19:02:05.106Z,24.08
2018-03-29T19:04:34.634Z,14.57
2018-03-29T19:07:03.419Z,10.68
2018-03-29T19:09:31.995Z,17.15
2018-03-29T19:12:00.521Z,16.15
2018-03-29T19:14:28.992Z,12.05
2018-03-29T19:16:58.037Z,10.90
2018-03-29T19:19:26.913Z,14.77
2018-03-29T19:21:55.535Z,17.90
2018-03-29T19:24:24.808Z,11.23
2018-03-29T19:26:53.578Z,10.70
2018-03-29T19:29:22.252Z,12.75
2018-03-29T19:31:51.792Z,17.58
2018-03-29T19:34:21.331Z,12.73
2018-03-29T19:36:49.958Z,9.18
2018-03-29T19:39:18.645Z,9.65
2018-03-29T19:41:47.149Z,9.48
2018-03-29T19:44:15.705Z,12.05
2018-03-29T19:46:44.305Z,10.60
2018-03-29T19:49:12.733Z,10.07
2018-03-29T19:51:41.116Z,9.43
2018-03-29T19:54:09.660Z,10.98
2018-03-29T19:56:38.229Z,12.70
2018-03-29T19:59:07.108Z,13.88
2018-03-29T20:01:36.461Z,7.85
2018-03-29T20:04:05.132Z,15.32
2018-03-29T20:06:33.824Z,8.60
2018-03-29T20:09:02.870Z,11.75
2018-03-29T20:11:31.660Z,11.40
2018-03-29T20:14:00.933Z,11.07
2018-03-29T20:16:30.182Z,10.57
2018-03-29T20:18:59.463Z,11.20
2018-03-29T20:21:28.801Z,14.90
2018-03-29T20:23:58.986Z,10.10
2018-03-29T20:26:28.719Z,7.93
2018-03-29T20:28:57.915Z,12.88
2018-03-29T20:31:28.507Z,12.07
2018-03-29T20:34:00.280Z,16.23
2018-03-29T20:36:30.094Z,11.20
2018-03-29T20:38:59.586Z,14.85
2018-03-29T20:41:28.293Z,11.90
2018-03-29T20:43:57.622Z,10.80
2018-03-29T20:46:26.490Z,8.35
2018-03-29T20:48:55.987Z,13.18
2018-03-29T20:51:25.634Z,8.05
2018-03-29T20:53:54.647Z,8.45
2018-03-29T20:56:23.920Z,17.50
2018-03-29T20:58:53.799Z,12.13
2018-03-29T21:01:22.854Z,14.90
2018-03-29T21:03:52.609Z,11.00
2018-03-29T21:06:26.293Z,13.82
2018-03-29T21:08:58.673Z,11.68
2018-03-29T21:11:33.351Z,12.00
2018-03-29T21:14:02.316Z,14.82
2018-03-29T21:16:32.022Z,9.63
2018-03-29T21:19:01.604Z,8.85
2018-03-29T21:21:30.511Z,15.75
2018-03-29T21:23:59.878Z,11.05
2018-03-29T21:26:28.648Z,7.68
2018-03-29T21:28:57.696Z,11.93
2018-03-29T21:31:26.543Z,19.92
2018-03-29T21:33:55.542Z,13.57
2018-03-29T21:36:28.394Z,13.02
2018-03-29T21:38:57.972Z,11.85
2018-03-29T21:41:29.359Z,13.55
2018-03-29T21:43:59.800Z,14.25
2018-03-29T21:46:28.947Z,14.85
2018-03-29T21:48:57.782Z,17.17
2018-03-29T21:51:30.027Z,11.07
2018-03-29T21:53:58.779Z,16.48
2018-03-29T21:56:28.090Z,15.23
2018-03-29T21:58:56.727Z,13.98
2018-03-29T22:01:26.254Z,11.93
2018-03-29T22:03:55.319Z,13.23
2018-03-29T22:06:24.143Z,9.93
2018-03-29T22:08:52.837Z,14.05
2018-03-29T22:11:22.483Z,16.40
2018-03-29T22:13:51.477Z,13.55
2018-03-29T22:16:19.956Z,20.20
2018-03-29T22:18:48.507Z,11.35
2018-03-29T22:21:17.784Z,18.48
2018-03-29T22:23:46.314Z,13.45
2018-03-29T22:26:14.736Z,11.50
2018-03-29T22:28:43.494Z,12.20
2018-03-29T22:31:12.206Z,10.98
2018-03-29T22:33:40.743Z,13.52
2018-03-29T22:36:09.506Z,11.63
2018-03-29T22:38:37.969Z,9.35
2018-03-29T22:41:06.417Z,12.48
2018-03-29T22:43:34.844Z,10.48
2018-03-29T22:46:03.290Z,13.38
2018-03-29T22:48:31.932Z,11.77
2018-03-29T22:51:01.570Z,18.17
2018-03-29T22:53:30.080Z,14.60
2018-03-29T22:55:58.430Z,10.82
2018-03-29T22:58:27.044Z,9.27
2018-03-29T23:00:56.480Z,8.38
2018-03-29T23:03:24.819Z,8.05
2018-03-29T23:05:53.513Z,8.23
2018-03-29T23:08:22.379Z,5.95
2018-03-29T23:10:50.861Z,9.68
2018-03-29T23:13:19.264Z,9.43
2018-03-29T23:15:47.582Z,9.73
2018-03-29T23:18:15.926Z,7.57
2018-03-29T23:20:45.157Z,8.77
2018-03-29T23:23:13.527Z,11.77
2018-03-29T23:25:42.007Z,8.90
2018-03-29T23:28:11.813Z,9.15
2018-03-29T23:30:40.186Z,10.45
2018-03-29T23:33:08.867Z,11.43
2018-03-29T23:35:37.295Z,10.25
2018-03-29T23:38:05.687Z,8.85
2018-03-29T23:40:34.098Z,5.45
2018-03-29T23:43:02.512Z,8.25
2018-03-29T23:45:31.102Z,8.07
2018-03-29T23:48:00.046Z,9.77
2018-03-29T23:50:28.752Z,10.02
2018-03-29T23:52:57.533Z,9.50
2018-03-29T23:55:26.066Z,7.70
2018-03-29T23:58:06.946Z,12.13
